createdAt,value
2022-08-18T00:01:52.439Z,17.38
2022-08-18T00:04:34.828Z,17.31
2022-08-18T00:07:05.155Z,17.59
2022-08-18T00:09:33.126Z,17.24
2022-08-18T00:12:03.135Z,17.42
2022-08-18T00:14:33.075Z,17.11
2022-08-18T00:17:01.922Z,17.24
2022-08-18T00:19:46.638Z,17.14
2022-08-18T00:22:18.439Z,17.27
2022-08-18T00:24:49.658Z,17.73
2022-08-18T00:27:21.956Z,17.92
2022-08-18T00:29:54.048Z,17.79
2022-08-18T00:32:23.514Z,18.01
2022-08-18T00:34:51.639Z,18.12
2022-08-18T00:37:19.400Z,18.08
2022-08-18T00:39:48.083Z,18.01
2022-08-18T00:42:27.047Z,17.75
2022-08-18T00:45:02.889Z,17.85
2022-08-18T00:47:42.879Z,17.94
2022-08-18T00:50:15.460Z,17.82
2022-08-18T00:52:50.688Z,17.94
2022-08-18T00:55:19.899Z,17.93
2022-08-18T00:57:48.874Z,17.87
2022-08-18T01:00:18.182Z,17.89
2022-08-18T01:02:50.611Z,17.96
2022-08-18T01:05:24.015Z,18.17
2022-08-18T01:07:52.705Z,18.33
2022-08-18T01:10:22.867Z,18.37
2022-08-18T01:12:52.270Z,18.46
2022-08-18T01:15:28.719Z,18.45
2022-08-18T01:18:15.411Z,18.36
2022-08-18T01:21:06.897Z,18.40
2022-08-18T01:23:41.560Z,18.29
2022-08-18T01:26:09.550Z,18.18
2022-08-18T01:28:40.631Z,18.24
2022-08-18T01:31:09.937Z,18.14
2022-08-18T01:33:39.726Z,18.15
2022-08-18T01:36:14.805Z,18.13
2022-08-18T01:38:44.442Z,18.18
2022-08-18T01:41:27.054Z,18.25
2022-08-18T01:43:59.058Z,18.36
2022-08-18T01:46:27.727Z,18.30
2022-08-18T01:48:55.910Z,18.22
2022-08-18T01:51:40.428Z,18.30
2022-08-18T01:54:12.132Z,18.33
2022-08-18T01:56:40.942Z,18.35
2022-08-18T01:59:15.276Z,18.42
2022-08-18T02:01:50.704Z,18.41
2022-08-18T02:04:34.952Z,18.44
2022-08-18T02:07:06.104Z,18.38
2022-08-18T02:09:37.915Z,18.36
2022-08-18T02:12:07.256Z,18.24
2022-08-18T02:14:36.547Z,18.21
2022-08-18T02:17:06.317Z,18.10
2022-08-18T02:19:35.302Z,18.18
2022-08-18T02:22:03.819Z,18.19
2022-08-18T02:24:32.421Z,18.06
2022-08-18T02:27:01.710Z,17.89
2022-08-18T02:29:29.515Z,17.95
2022-08-18T02:31:57.181Z,17.94
2022-08-18T02:34:25.466Z,17.96
2022-08-18T02:36:53.235Z,17.97
2022-08-18T02:39:20.979Z,18.02
2022-08-18T02:41:48.881Z,18.03
2022-08-18T02:44:18.001Z,17.93
2022-08-18T02:46:46.408Z,17.97
2022-08-18T02:49:14.093Z,18.11
2022-08-18T02:51:41.931Z,18.19
2022-08-18T02:54:11.607Z,18.27
2022-08-18T02:56:41.640Z,18.31
2022-08-18T02:59:13.419Z,18.28
2022-08-18T03:01:46.380Z,18.26
2022-08-18T03:04:16.684Z,18.32
2022-08-18T03:06:46.408Z,18.33
2022-08-18T03:09:16.118Z,18.32
2022-08-18T03:11:43.909Z,18.32
2022-08-18T03:14:12.547Z,18.29
2022-08-18T03:16:54.441Z,18.32
2022-08-18T03:19:23.617Z,18.39
2022-08-18T03:21:52.465Z,18.31
2022-08-18T03:24:22.388Z,18.24
2022-08-18T03:26:52.877Z,18.03
2022-08-18T03:29:21.283Z,17.91
2022-08-18T03:31:51.020Z,17.85
2022-08-18T03:34:21.135Z,17.80
2022-08-18T03:36:49.858Z,17.94
2022-08-18T03:39:18.662Z,18.00
2022-08-18T03:41:59.658Z,18.14
2022-08-18T03:44:30.464Z,18.18
2022-08-18T03:47:00.164Z,18.23
2022-08-18T03:49:28.078Z,18.25
2022-08-18T03:52:01.160Z,18.26
2022-08-18T03:54:29.794Z,18.18
2022-08-18T03:56:57.764Z,18.13
2022-08-18T03:59:27.295Z,18.13
2022-08-18T04:01:56.334Z,18.21
2022-08-18T04:04:29.314Z,18.28
2022-08-18T04:06:59.274Z,18.21
2022-08-18T04:09:29.327Z,18.28
2022-08-18T04:11:57.727Z,18.28
2022-08-18T04:14:28.873Z,18.21
2022-08-18T04:16:56.683Z,18.32
2022-08-18T04:19:27.987Z,18.32
2022-08-18T04:21:57.438Z,18.41
2022-08-18T04:24:26.652Z,18.42
2022-08-18T04:26:58.057Z,18.45
2022-08-18T04:29:26.130Z,18.55
2022-08-18T04:31:53.977Z,18.54
2022-08-18T04:34:22.970Z,18.63
2022-08-18T04:36:54.594Z,18.61
2022-08-18T04:39:23.562Z,18.66
2022-08-18T04:41:51.639Z,18.65
2022-08-18T04:44:20.399Z,18.65
2022-08-18T04:46:50.305Z,18.67
2022-08-18T04:49:19.148Z,18.70
2022-08-18T04:52:36.565Z,18.68
2022-08-18T04:54:58.153Z,18.66
2022-08-18T04:57:26.854Z,18.61
2022-08-18T04:59:54.486Z,18.64
2022-08-18T05:02:22.616Z,18.68
2022-08-18T05:04:52.231Z,18.73
2022-08-18T05:07:23.544Z,18.86
2022-08-18T05:09:51.920Z,18.86
2022-08-18T05:12:25.952Z,18.91
2022-08-18T05:14:56.890Z,18.92
2022-08-18T05:17:30.367Z,18.87
2022-08-18T05:20:01.414Z,18.88
2022-08-18T05:22:31.711Z,18.93
2022-08-18T05:25:00.147Z,18.94
2022-08-18T05:27:35.169Z,18.90
2022-08-18T05:30:03.782Z,18.97
2022-08-18T05:32:47.561Z,18.94
2022-08-18T05:35:22.675Z,18.91
2022-08-18T05:38:02.046Z,19.05
2022-08-18T05:40:31.011Z,19.02
2022-08-18T05:43:00.694Z,19.10
2022-08-18T05:45:29.018Z,19.07
2022-08-18T05:48:00.101Z,19.17
2022-08-18T05:50:29.823Z,19.11
2022-08-18T05:52:59.178Z,19.16
2022-08-18T05:55:49.928Z,19.20
2022-08-18T05:58:21.344Z,19.25
2022-08-18T06:00:59.740Z,19.19
2022-08-18T06:03:31.544Z,19.46
2022-08-18T06:06:16.921Z,19.44
2022-08-18T06:08:48.696Z,19.47
2022-08-18T06:11:22.331Z,19.53
2022-08-18T06:13:54.198Z,19.66
2022-08-18T06:16:35.255Z,19.66
2022-08-18T06:19:05.273Z,19.57
2022-08-18T06:21:40.767Z,19.66
2022-08-18T06:24:19.067Z,19.72
2022-08-18T06:26:52.596Z,19.75
2022-08-18T06:29:42.189Z,19.62
2022-08-18T06:32:19.030Z,19.88
2022-08-18T06:34:57.009Z,19.79
2022-08-18T06:37:30.413Z,19.89
2022-08-18T06:39:59.655Z,19.76
2022-08-18T06:42:30.600Z,19.78
2022-08-18T06:45:02.306Z,19.82
2022-08-18T06:47:37.615Z,19.77
2022-08-18T06:50:08.296Z,19.71
2022-08-18T06:52:38.306Z,19.72
2022-08-18T06:55:09.053Z,19.75
2022-08-18T06:57:38.606Z,19.68
2022-08-18T07:00:11.520Z,19.73
2022-08-18T07:02:51.986Z,19.82
2022-08-18T07:05:25.636Z,19.95
2022-08-18T07:08:07.833Z,19.93
2022-08-18T07:10:38.378Z,20.20
2022-08-18T07:13:17.785Z,19.91
2022-08-18T07:15:48.191Z,20.11
2022-08-18T07:18:23.307Z,20.04
2022-08-18T07:20:54.655Z,20.20
2022-08-18T07:23:27.455Z,20.01
2022-08-18T07:26:03.225Z,20.37
2022-08-18T07:28:33.869Z,20.48
2022-08-18T07:31:18.829Z,20.57
2022-08-18T07:33:53.127Z,20.13
2022-08-18T07:36:21.763Z,20.07
2022-08-18T07:38:52.745Z,20.32
2022-08-18T07:41:26.269Z,20.28
2022-08-18T07:44:16.469Z,20.37
2022-08-18T07:46:51.941Z,20.24
2022-08-18T07:49:22.667Z,20.07
2022-08-18T07:51:54.034Z,20.13
2022-08-18T07:54:51.120Z,20.05
2022-08-18T07:57:26.480Z,19.93
2022-08-18T07:59:59.955Z,20.31
2022-08-18T08:02:37.603Z,20.26
2022-08-18T08:05:11.400Z,20.21
2022-08-18T08:07:42.937Z,20.41
2022-08-18T08:10:26.072Z,20.89
2022-08-18T08:13:09.097Z,20.61
2022-08-18T08:15:46.734Z,20.43
2022-08-18T08:18:20.069Z,20.56
2022-08-18T08:20:50.935Z,20.74
2022-08-18T08:23:27.435Z,21.08
2022-08-18T08:26:08.089Z,21.26
2022-08-18T08:28:42.565Z,21.36
2022-08-18T08:34:55.263Z,21.44
2022-08-18T08:37:29.532Z,21.44
2022-08-18T08:39:59.171Z,21.60
2022-08-18T08:42:36.348Z,21.67
2022-08-18T08:45:10.640Z,21.65
2022-08-18T08:47:43.837Z,21.36
2022-08-18T08:50:16.124Z,21.42
2022-08-18T08:52:48.095Z,21.51
2022-08-18T08:55:19.258Z,21.68
2022-08-18T08:57:51.441Z,21.93
2022-08-18T09:00:19.691Z,21.80
2022-08-18T09:03:11.372Z,22.01
2022-08-18T09:09:43.038Z,22.20
2022-08-18T09:12:19.972Z,23.10
2022-08-18T09:15:25.199Z,23.08
2022-08-18T09:18:05.928Z,22.96
2022-08-18T09:20:49.761Z,22.32
2022-08-18T09:23:21.091Z,22.46
2022-08-18T09:25:52.607Z,22.58
2022-08-18T09:28:23.347Z,22.49
2022-08-18T09:31:10.793Z,22.93
2022-08-18T09:34:17.271Z,23.53
2022-08-18T09:40:12.581Z,23.36
2022-08-18T09:42:55.890Z,23.36
2022-08-18T09:45:55.305Z,23.66
2022-08-18T09:48:30.570Z,23.52
2022-08-18T09:51:23.519Z,23.32
2022-08-18T09:54:14.371Z,23.29
2022-08-18T09:57:23.605Z,23.34
2022-08-18T09:59:59.317Z,23.25
2022-08-18T10:03:04.297Z,23.28
2022-08-18T10:05:32.560Z,23.51
2022-08-18T10:08:35.877Z,23.59
2022-08-18T10:11:20.623Z,23.29
2022-08-18T10:14:05.723Z,23.19
2022-08-18T10:17:12.944Z,23.36
2022-08-18T10:19:40.163Z,24.41
2022-08-18T10:22:09.627Z,23.83
2022-08-18T10:24:41.482Z,23.17
2022-08-18T10:27:29.618Z,23.82
2022-08-18T10:29:58.653Z,24.05
2022-08-18T10:35:58.983Z,23.36
2022-08-18T10:38:46.107Z,23.43
2022-08-18T10:41:31.437Z,23.65
2022-08-18T10:44:00.578Z,24.47
2022-08-18T10:46:34.410Z,25.12
2022-08-18T10:49:18.324Z,24.39
2022-08-18T10:52:00.950Z,25.23
2022-08-18T10:58:05.819Z,24.28
2022-08-18T11:00:45.201Z,25.49
2022-08-18T11:03:50.735Z,24.24
2022-08-18T11:09:02.845Z,24.14
2022-08-18T11:14:44.277Z,25.15
2022-08-18T11:17:18.539Z,25.01
2022-08-18T11:19:50.641Z,25.35
2022-08-18T11:22:31.141Z,24.69
2022-08-18T11:25:01.008Z,24.51
2022-08-18T11:27:32.860Z,23.95
2022-08-18T11:30:02.198Z,23.87
2022-08-18T11:35:25.967Z,24.47
2022-08-18T11:37:59.895Z,24.76
2022-08-18T11:43:29.429Z,25.36
2022-08-18T11:46:00.229Z,25.98
2022-08-18T11:48:50.992Z,26.17
2022-08-18T11:51:23.685Z,25.84
2022-08-18T11:56:45.258Z,26.33
2022-08-18T11:59:52.245Z,26.30
2022-08-18T12:02:22.430Z,26.25
2022-08-18T12:04:53.671Z,26.35
2022-08-18T12:07:28.815Z,26.88
2022-08-18T12:10:19.025Z,27.01
2022-08-18T12:12:51.757Z,26.51
2022-08-18T12:15:44.188Z,26.91
2022-08-18T12:18:18.682Z,27.13
2022-08-18T12:20:55.165Z,26.84
2022-08-18T12:23:23.153Z,27.28
2022-08-18T12:25:52.881Z,26.56
2022-08-18T12:28:22.451Z,26.31
2022-08-18T12:30:57.008Z,25.40
2022-08-18T12:33:34.608Z,25.19
2022-08-18T12:36:15.786Z,25.63
2022-08-18T12:38:52.193Z,25.01
2022-08-18T12:41:26.502Z,24.58
2022-08-18T12:46:42.946Z,24.73
2022-08-18T12:49:16.236Z,25.09
2022-08-18T12:51:44.052Z,25.19
2022-08-18T12:54:12.805Z,24.93
2022-08-18T12:56:42.985Z,25.34
2022-08-18T12:59:11.979Z,25.10
2022-08-18T13:01:41.124Z,25.39
2022-08-18T13:07:04.766Z,25.69
2022-08-18T13:09:53.106Z,25.79
2022-08-18T13:13:24.988Z,25.68
2022-08-18T13:16:01.501Z,25.71
2022-08-18T13:18:31.403Z,26.14
2022-08-18T13:21:00.281Z,26.40
2022-08-18T13:23:29.109Z,26.81
2022-08-18T13:26:01.364Z,27.07
2022-08-18T13:28:35.797Z,27.07
2022-08-18T13:31:23.427Z,27.27
2022-08-18T13:33:57.482Z,27.13
2022-08-18T13:36:44.309Z,26.10
2022-08-18T13:39:16.447Z,26.89
2022-08-18T13:41:48.767Z,27.34
2022-08-18T13:44:19.690Z,28.38
2022-08-18T13:47:52.062Z,28.07
2022-08-18T13:50:29.744Z,28.27
2022-08-18T13:53:01.107Z,27.96
2022-08-18T13:55:29.978Z,28.21
2022-08-18T13:57:58.016Z,28.31
2022-08-18T14:00:31.214Z,26.72
2022-08-18T14:03:03.435Z,27.25
2022-08-18T14:05:50.811Z,26.06
2022-08-18T14:08:20.769Z,26.16
2022-08-18T14:10:50.962Z,25.73
2022-08-18T14:13:24.304Z,25.79
2022-08-18T14:15:56.475Z,25.40
2022-08-18T14:18:31.154Z,25.59
2022-08-18T14:21:23.003Z,26.48
2022-08-18T14:24:14.336Z,26.20
2022-08-18T14:26:50.036Z,25.90
2022-08-18T14:29:46.829Z,25.99
2022-08-18T14:32:06.678Z,26.48
2022-08-18T14:34:35.122Z,26.30
2022-08-18T14:37:05.360Z,25.94
2022-08-18T14:39:38.800Z,26.02
2022-08-18T14:42:10.204Z,26.04
2022-08-18T14:44:41.598Z,26.66
2022-08-18T14:47:13.728Z,26.35
2022-08-18T14:49:52.321Z,25.88
2022-08-18T14:52:27.630Z,26.46
2022-08-18T14:54:56.536Z,26.56
2022-08-18T14:57:25.696Z,27.15
2022-08-18T14:59:53.584Z,27.40
2022-08-18T15:02:26.283Z,29.16
2022-08-18T15:04:56.234Z,30.54
2022-08-18T15:07:27.504Z,28.50
2022-08-18T15:10:15.252Z,29.26
2022-08-18T15:12:44.543Z,30.15
2022-08-18T15:15:18.131Z,30.10
2022-08-18T15:17:52.406Z,29.94
2022-08-18T15:20:23.827Z,29.26
2022-08-18T15:23:18.243Z,28.12
2022-08-18T15:25:52.464Z,27.62
2022-08-18T15:28:23.722Z,26.82
2022-08-18T15:33:42.391Z,28.02
2022-08-18T15:36:16.257Z,27.06
2022-08-18T15:38:46.228Z,27.73
2022-08-18T15:41:33.990Z,27.36
2022-08-18T15:44:03.561Z,28.37
2022-08-18T15:46:33.616Z,30.38
2022-08-18T15:49:05.136Z,31.76
2022-08-18T15:51:35.471Z,32.99
2022-08-18T15:54:11.411Z,33.50
2022-08-18T15:56:39.433Z,33.75
2022-08-18T15:59:11.042Z,34.00
2022-08-18T16:01:43.485Z,33.65
2022-08-18T16:04:12.657Z,33.30
2022-08-18T16:06:45.126Z,33.20
2022-08-18T16:09:15.396Z,34.73
2022-08-18T16:11:43.412Z,33.60
2022-08-18T16:14:11.036Z,31.68
2022-08-18T16:16:38.836Z,32.29
2022-08-18T16:19:07.979Z,33.43
2022-08-18T16:21:39.619Z,32.81
2022-08-18T16:24:08.292Z,31.19
2022-08-18T16:26:37.513Z,31.26
2022-08-18T16:29:05.556Z,31.57
2022-08-18T16:31:33.651Z,30.70
2022-08-18T16:34:02.231Z,32.13
2022-08-18T16:36:29.989Z,32.06
2022-08-18T16:38:58.340Z,30.03
2022-08-18T16:41:27.330Z,31.37
2022-08-18T16:43:56.539Z,30.19
2022-08-18T16:46:26.622Z,30.13
2022-08-18T16:48:54.998Z,31.61
2022-08-18T16:51:25.260Z,30.25
2022-08-18T16:53:54.440Z,29.87
2022-08-18T16:56:24.033Z,30.49
2022-08-18T16:59:10.468Z,30.33
2022-08-18T17:01:57.218Z,30.60
2022-08-18T17:04:28.648Z,28.74
2022-08-18T17:06:57.659Z,29.01
2022-08-18T17:09:27.943Z,29.49
2022-08-18T17:11:56.107Z,29.04
2022-08-18T17:14:27.689Z,29.22
2022-08-18T17:16:58.681Z,28.86
2022-08-18T17:19:30.227Z,29.44
2022-08-18T17:21:58.584Z,28.59
2022-08-18T17:24:31.703Z,29.91
2022-08-18T17:27:22.357Z,28.64
2022-08-18T17:30:00.427Z,28.64
2022-08-18T17:35:09.418Z,26.98
2022-08-18T17:37:37.971Z,26.51
2022-08-18T17:40:08.616Z,25.59
2022-08-18T17:42:40.102Z,25.67
2022-08-18T17:45:13.742Z,25.86
2022-08-18T17:47:56.379Z,25.33
2022-08-18T17:50:45.786Z,24.99
2022-08-18T17:53:15.537Z,24.95
2022-08-18T17:55:46.399Z,24.87
2022-08-18T17:58:20.534Z,24.50
2022-08-18T18:00:48.216Z,24.40
2022-08-18T18:03:17.480Z,24.31
2022-08-18T18:05:52.712Z,24.09
2022-08-18T18:08:20.896Z,23.94
2022-08-18T18:11:04.000Z,23.73
2022-08-18T18:13:35.179Z,23.58
2022-08-18T18:16:21.902Z,23.63
2022-08-18T18:18:59.968Z,23.47
2022-08-18T18:22:00.136Z,23.35
2022-08-18T18:24:24.146Z,23.16
2022-08-18T18:26:52.523Z,23.16
2022-08-18T18:29:28.911Z,22.98
2022-08-18T18:32:01.623Z,22.86
2022-08-18T18:34:39.147Z,22.82
2022-08-18T18:37:25.903Z,22.66
2022-08-18T18:39:58.349Z,22.46
2022-08-18T18:42:29.230Z,22.38
2022-08-18T18:45:00.436Z,21.82
2022-08-18T18:47:49.409Z,21.40
2022-08-18T18:50:28.189Z,20.86
2022-08-18T18:53:11.243Z,20.88
2022-08-18T18:55:44.995Z,20.74
2022-08-18T18:58:22.805Z,20.72
2022-08-18T19:00:54.209Z,20.58
2022-08-18T19:03:27.475Z,20.51
2022-08-18T19:06:06.883Z,20.20
2022-08-18T19:08:39.764Z,20.51
2022-08-18T19:11:15.227Z,20.37
2022-08-18T19:13:47.239Z,19.73
2022-08-18T19:16:26.584Z,19.32
2022-08-18T19:19:37.649Z,19.21
2022-08-18T19:22:05.805Z,18.99
2022-08-18T19:24:38.978Z,18.90
2022-08-18T19:27:12.444Z,19.23
2022-08-18T19:29:43.876Z,19.38
2022-08-18T19:32:16.825Z,19.90
2022-08-18T19:34:52.701Z,20.18
2022-08-18T19:37:32.292Z,20.15
2022-08-18T19:40:04.530Z,20.25
2022-08-18T19:42:37.505Z,20.10
2022-08-18T19:45:16.742Z,20.33
2022-08-18T19:47:50.011Z,19.92
2022-08-18T19:50:35.677Z,20.10
2022-08-18T19:53:20.857Z,20.05
2022-08-18T19:56:03.287Z,19.28
2022-08-18T19:59:15.458Z,18.75
2022-08-18T20:01:53.651Z,18.57
2022-08-18T20:04:28.635Z,18.87
2022-08-18T20:07:25.208Z,18.44
2022-08-18T20:10:14.941Z,18.29
2022-08-18T20:12:57.740Z,18.45
2022-08-18T20:15:28.507Z,18.55
2022-08-18T20:18:02.994Z,18.22
2022-08-18T20:20:32.025Z,17.94
2022-08-18T20:23:01.051Z,17.84
2022-08-18T20:25:40.759Z,17.93
2022-08-18T20:28:33.419Z,17.87
2022-08-18T20:31:12.626Z,17.82
2022-08-18T20:33:46.247Z,17.73
2022-08-18T20:36:31.336Z,17.68
2022-08-18T20:39:01.221Z,17.40
2022-08-18T20:41:41.418Z,17.43
2022-08-18T20:44:57.358Z,17.31
2022-08-18T20:47:47.374Z,17.22
2022-08-18T20:50:44.091Z,17.22
2022-08-18T20:53:19.014Z,17.60
2022-08-18T20:55:56.356Z,17.79
2022-08-18T20:58:32.627Z,18.25
2022-08-18T21:01:01.994Z,18.71
2022-08-18T21:03:37.533Z,18.96
2022-08-18T21:06:06.281Z,18.50
2022-08-18T21:08:36.798Z,18.76
2022-08-18T21:11:08.144Z,18.54
2022-08-18T21:13:40.694Z,18.83
2022-08-18T21:16:09.743Z,18.92
2022-08-18T21:18:38.445Z,18.86
2022-08-18T21:21:26.673Z,18.12
2022-08-18T21:23:58.037Z,17.66
2022-08-18T21:26:27.287Z,17.67
2022-08-18T21:28:59.266Z,18.00
2022-08-18T21:31:44.213Z,18.54
2022-08-18T21:34:18.267Z,17.85
2022-08-18T21:36:53.629Z,17.47
2022-08-18T21:39:24.420Z,17.10
2022-08-18T21:41:54.384Z,17.08
2022-08-18T21:44:25.188Z,18.04
2022-08-18T21:47:05.781Z,18.36
2022-08-18T21:49:34.983Z,17.92
2022-08-18T21:52:02.963Z,17.61
2022-08-18T21:54:34.357Z,17.45
2022-08-18T21:57:23.111Z,18.13
2022-08-18T22:00:25.687Z,18.06
2022-08-18T22:03:11.544Z,17.06
2022-08-18T22:05:59.118Z,16.79
2022-08-18T22:08:29.638Z,16.72
2022-08-18T22:12:01.552Z,16.80
2022-08-18T22:14:53.975Z,16.50
2022-08-18T22:17:31.592Z,16.62
2022-08-18T22:20:39.296Z,16.38
2022-08-18T22:23:39.581Z,16.54
2022-08-18T22:26:12.364Z,16.86
2022-08-18T22:28:51.110Z,16.49
2022-08-18T22:31:21.248Z,16.39
2022-08-18T22:33:51.234Z,16.27
2022-08-18T22:36:21.500Z,16.53
2022-08-18T22:38:49.483Z,16.42
2022-08-18T22:41:18.479Z,16.62
2022-08-18T22:43:46.123Z,16.68
2022-08-18T22:46:24.114Z,16.52
2022-08-18T22:48:55.938Z,16.47
2022-08-18T22:51:25.186Z,15.95
2022-08-18T22:54:06.280Z,16.67
2022-08-18T22:56:35.736Z,16.39
2022-08-18T22:59:14.046Z,16.31
2022-08-18T23:01:46.045Z,16.31
2022-08-18T23:04:16.882Z,15.96
2022-08-18T23:06:51.575Z,16.14
2022-08-18T23:09:21.963Z,15.77
2022-08-18T23:15:43.810Z,16.04
2022-08-18T23:18:12.237Z,16.37
2022-08-18T23:20:41.453Z,16.05
2022-08-18T23:23:09.859Z,16.00
2022-08-18T23:25:37.980Z,16.34
2022-08-18T23:28:10.625Z,16.59
2022-08-18T23:30:40.959Z,16.15
2022-08-18T23:33:10.338Z,15.83
2022-08-18T23:35:38.352Z,15.82
2022-08-18T23:38:08.759Z,15.76
2022-08-18T23:40:38.296Z,16.08
2022-08-18T23:43:06.908Z,15.88
2022-08-18T23:45:36.446Z,15.88
2022-08-18T23:48:04.561Z,15.75
2022-08-18T23:50:32.826Z,15.92
2022-08-18T23:53:02.781Z,16.25
2022-08-18T23:55:33.897Z,16.31
2022-08-18T23:58:01.539Z,16.28
